sensor_id;sensor_type;location;lat;lon;timestamp;P1;durP1;ratioP1;P2;durP2;ratioP2
36709;SDS011;22694;51.040;3.684;2023-04-01T00:00:19;2.80;;;1.02;;
36709;SDS011;22694;51.040;3.684;2023-04-01T00:02:45;3.35;;;1.20;;
36709;SDS011;22694;51.040;3.684;2023-04-01T00:05:11;4.60;;;1.45;;
36709;SDS011;22694;51.040;3.684;2023-04-01T00:07:37;4.03;;;1.13;;
36709;SDS011;22694;51.040;3.684;2023-04-01T00:10:05;3.05;;;1.10;;
36709;SDS011;22694;51.040;3.684;2023-04-01T00:12:32;3.20;;;1.10;;
36709;SDS011;22694;51.040;3.684;2023-04-01T00:14:57;3.08;;;1.13;;
36709;SDS011;22694;51.040;3.684;2023-04-01T00:17:23;2.15;;;0.80;;
36709;SDS011;22694;51.040;3.684;2023-04-01T00:19:50;2.92;;;1.20;;
36709;SDS011;22694;51.040;3.684;2023-04-01T00:22:15;2.08;;;1.20;;
36709;SDS011;22694;51.040;3.684;2023-04-01T00:24:41;3.10;;;1.30;;
36709;SDS011;22694;51.040;3.684;2023-04-01T00:27:07;3.47;;;1.40;;
36709;SDS011;22694;51.040;3.684;2023-04-01T00:29:33;2.85;;;1.10;;
36709;SDS011;22694;51.040;3.684;2023-04-01T00:31:59;2.72;;;1.30;;
36709;SDS011;22694;51.040;3.684;2023-04-01T00:34:25;3.40;;;1.15;;
36709;SDS011;22694;51.040;3.684;2023-04-01T00:36:51;2.83;;;0.90;;
36709;SDS011;22694;51.040;3.684;2023-04-01T00:39:18;1.70;;;1.05;;
36709;SDS011;22694;51.040;3.684;2023-04-01T00:41:44;1.83;;;0.90;;
36709;SDS011;22694;51.040;3.684;2023-04-01T00:44:29;3.50;;;1.13;;
36709;SDS011;22694;51.040;3.684;2023-04-01T00:46:57;1.83;;;0.95;;
36709;SDS011;22694;51.040;3.684;2023-04-01T00:49:28;3.70;;;1.25;;
36709;SDS011;22694;51.040;3.684;2023-04-01T00:51:58;1.50;;;1.02;;
36709;SDS011;22694;51.040;3.684;2023-04-01T00:54:26;2.75;;;1.10;;
36709;SDS011;22694;51.040;3.684;2023-04-01T00:57:38;4.93;;;1.13;;
36709;SDS011;22694;51.040;3.684;2023-04-01T00:59:45;1.98;;;0.85;;
36709;SDS011;22694;51.040;3.684;2023-04-01T01:02:13;2.72;;;0.88;;
36709;SDS011;22694;51.040;3.684;2023-04-01T01:04:40;1.50;;;0.90;;
36709;SDS011;22694;51.040;3.684;2023-04-01T01:07:20;4.03;;;0.95;;
36709;SDS011;22694;51.040;3.684;2023-04-01T01:12:20;2.80;;;0.90;;
36709;SDS011;22694;51.040;3.684;2023-04-01T01:23:46;2.92;;;1.10;;
36709;SDS011;22694;51.040;3.684;2023-04-01T01:31:57;2.05;;;0.82;;
36709;SDS011;22694;51.040;3.684;2023-04-01T01:34:40;1.42;;;0.85;;
36709;SDS011;22694;51.040;3.684;2023-04-01T01:37:27;1.70;;;1.33;;
36709;SDS011;22694;51.040;3.684;2023-04-01T01:39:56;3.65;;;1.02;;
36709;SDS011;22694;51.040;3.684;2023-04-01T01:42:26;3.17;;;0.88;;
36709;SDS011;22694;51.040;3.684;2023-04-01T01:44:55;2.70;;;1.17;;
36709;SDS011;22694;51.040;3.684;2023-04-01T01:47:24;1.20;;;0.65;;
36709;SDS011;22694;51.040;3.684;2023-04-01T01:49:52;1.80;;;0.90;;
36709;SDS011;22694;51.040;3.684;2023-04-01T01:52:21;2.15;;;1.05;;
36709;SDS011;22694;51.040;3.684;2023-04-01T01:54:50;1.90;;;1.15;;
36709;SDS011;22694;51.040;3.684;2023-04-01T01:57:22;2.38;;;1.00;;
36709;SDS011;22694;51.040;3.684;2023-04-01T01:59:56;1.42;;;0.73;;
36709;SDS011;22694;51.040;3.684;2023-04-01T02:02:45;1.88;;;0.85;;
36709;SDS011;22694;51.040;3.684;2023-04-01T02:05:15;2.00;;;1.05;;
36709;SDS011;22694;51.040;3.684;2023-04-01T02:07:48;2.20;;;0.85;;
36709;SDS011;22694;51.040;3.684;2023-04-01T02:10:19;2.35;;;0.98;;
36709;SDS011;22694;51.040;3.684;2023-04-01T02:12:49;1.40;;;0.90;;
36709;SDS011;22694;51.040;3.684;2023-04-01T02:15:17;2.17;;;0.80;;
36709;SDS011;22694;51.040;3.684;2023-04-01T02:17:44;2.17;;;0.75;;
36709;SDS011;22694;51.040;3.684;2023-04-01T02:20:15;1.73;;;0.73;;
36709;SDS011;22694;51.040;3.684;2023-04-01T02:22:48;2.35;;;1.10;;
36709;SDS011;22694;51.040;3.684;2023-04-01T02:25:37;2.30;;;0.70;;
36709;SDS011;22694;51.040;3.684;2023-04-01T02:28:06;2.15;;;1.20;;
36709;SDS011;22694;51.040;3.684;2023-04-01T02:30:34;2.83;;;1.33;;
36709;SDS011;22694;51.040;3.684;2023-04-01T02:33:01;2.70;;;1.20;;
36709;SDS011;22694;51.040;3.684;2023-04-01T02:35:30;1.90;;;0.80;;
36709;SDS011;22694;51.040;3.684;2023-04-01T02:37:58;2.20;;;0.93;;
36709;SDS011;22694;51.040;3.684;2023-04-01T02:40:24;2.88;;;0.88;;
36709;SDS011;22694;51.040;3.684;2023-04-01T02:42:50;3.05;;;1.15;;
36709;SDS011;22694;51.040;3.684;2023-04-01T02:45:16;2.13;;;1.00;;
36709;SDS011;22694;51.040;3.684;2023-04-01T02:47:42;2.15;;;0.90;;
36709;SDS011;22694;51.040;3.684;2023-04-01T02:50:07;3.03;;;1.00;;
36709;SDS011;22694;51.040;3.684;2023-04-01T02:52:34;2.85;;;1.00;;
36709;SDS011;22694;51.040;3.684;2023-04-01T02:54:59;2.35;;;0.73;;
36709;SDS011;22694;51.040;3.684;2023-04-01T02:57:25;2.60;;;0.90;;
36709;SDS011;22694;51.040;3.684;2023-04-01T02:59:51;3.63;;;1.10;;
36709;SDS011;22694;51.040;3.684;2023-04-01T03:02:17;2.38;;;0.90;;
36709;SDS011;22694;51.040;3.684;2023-04-01T03:04:43;2.55;;;0.80;;
36709;SDS011;22694;51.040;3.684;2023-04-01T03:07:09;2.60;;;1.10;;
36709;SDS011;22694;51.040;3.684;2023-04-01T03:09:35;2.22;;;0.88;;
36709;SDS011;22694;51.040;3.684;2023-04-01T03:12:02;1.60;;;0.88;;
36709;SDS011;22694;51.040;3.684;2023-04-01T03:14:27;2.70;;;1.10;;
36709;SDS011;22694;51.040;3.684;2023-04-01T03:16:53;2.47;;;1.20;;
36709;SDS011;22694;51.040;3.684;2023-04-01T03:19:19;1.77;;;0.82;;
36709;SDS011;22694;51.040;3.684;2023-04-01T03:21:45;2.00;;;1.00;;
36709;SDS011;22694;51.040;3.684;2023-04-01T03:24:11;2.33;;;1.08;;
36709;SDS011;22694;51.040;3.684;2023-04-01T03:26:36;1.80;;;0.70;;
36709;SDS011;22694;51.040;3.684;2023-04-01T03:29:02;2.30;;;0.90;;
36709;SDS011;22694;51.040;3.684;2023-04-01T03:31:27;2.58;;;0.80;;
36709;SDS011;22694;51.040;3.684;2023-04-01T03:33:53;3.00;;;1.13;;
36709;SDS011;22694;51.040;3.684;2023-04-01T03:36:19;1.38;;;0.80;;
36709;SDS011;22694;51.040;3.684;2023-04-01T03:38:45;1.60;;;0.80;;
36709;SDS011;22694;51.040;3.684;2023-04-01T03:41:14;1.50;;;0.80;;
36709;SDS011;22694;51.040;3.684;2023-04-01T03:43:41;2.85;;;0.77;;
36709;SDS011;22694;51.040;3.684;2023-04-01T03:46:07;1.55;;;0.98;;
36709;SDS011;22694;51.040;3.684;2023-04-01T03:48:33;2.42;;;0.90;;
36709;SDS011;22694;51.040;3.684;2023-04-01T03:50:59;1.92;;;0.82;;
36709;SDS011;22694;51.040;3.684;2023-04-01T03:53:25;0.82;;;0.75;;
36709;SDS011;22694;51.040;3.684;2023-04-01T03:55:51;2.00;;;0.77;;
36709;SDS011;22694;51.040;3.684;2023-04-01T03:58:17;1.35;;;0.95;;
36709;SDS011;22694;51.040;3.684;2023-04-01T04:00:43;1.75;;;0.93;;
36709;SDS011;22694;51.040;3.684;2023-04-01T04:03:08;1.92;;;0.90;;
36709;SDS011;22694;51.040;3.684;2023-04-01T04:05:34;2.13;;;0.63;;
36709;SDS011;22694;51.040;3.684;2023-04-01T04:08:00;0.95;;;0.63;;
36709;SDS011;22694;51.040;3.684;2023-04-01T04:10:26;1.27;;;0.90;;
36709;SDS011;22694;51.040;3.684;2023-04-01T04:12:54;2.05;;;0.73;;
36709;SDS011;22694;51.040;3.684;2023-04-01T04:15:20;2.30;;;0.90;;
36709;SDS011;22694;51.040;3.684;2023-04-01T04:17:46;2.70;;;0.60;;
36709;SDS011;22694;51.040;3.684;2023-04-01T04:20:12;1.45;;;0.82;;
36709;SDS011;22694;51.040;3.684;2023-04-01T04:22:39;1.00;;;0.70;;
36709;SDS011;22694;51.040;3.684;2023-04-01T04:25:05;1.63;;;0.75;;
36709;SDS011;22694;51.040;3.684;2023-04-01T04:27:31;1.15;;;0.60;;
36709;SDS011;22694;51.040;3.684;2023-04-01T04:29:56;0.77;;;0.47;;
36709;SDS011;22694;51.040;3.684;2023-04-01T04:32:22;1.35;;;0.80;;
36709;SDS011;22694;51.040;3.684;2023-04-01T04:34:48;0.95;;;0.40;;
36709;SDS011;22694;51.040;3.684;2023-04-01T04:37:13;0.82;;;0.60;;
36709;SDS011;22694;51.040;3.684;2023-04-01T04:39:39;0.70;;;0.50;;
36709;SDS011;22694;51.040;3.684;2023-04-01T04:42:05;1.13;;;0.50;;
36709;SDS011;22694;51.040;3.684;2023-04-01T04:44:30;1.67;;;0.60;;
36709;SDS011;22694;51.040;3.684;2023-04-01T04:46:56;2.35;;;0.70;;
36709;SDS011;22694;51.040;3.684;2023-04-01T04:49:22;1.45;;;0.50;;
36709;SDS011;22694;51.040;3.684;2023-04-01T04:51:47;0.77;;;0.40;;
36709;SDS011;22694;51.040;3.684;2023-04-01T04:54:13;1.42;;;0.80;;
36709;SDS011;22694;51.040;3.684;2023-04-01T04:56:39;1.35;;;0.50;;
36709;SDS011;22694;51.040;3.684;2023-04-01T04:59:05;0.90;;;0.60;;
36709;SDS011;22694;51.040;3.684;2023-04-01T05:01:31;1.85;;;0.55;;
36709;SDS011;22694;51.040;3.684;2023-04-01T05:03:58;1.35;;;0.55;;
36709;SDS011;22694;51.040;3.684;2023-04-01T05:06:24;1.73;;;0.75;;
36709;SDS011;22694;51.040;3.684;2023-04-01T05:08:50;1.00;;;0.70;;
36709;SDS011;22694;51.040;3.684;2023-04-01T05:11:17;0.70;;;0.60;;
36709;SDS011;22694;51.040;3.684;2023-04-01T05:13:44;1.50;;;0.70;;
36709;SDS011;22694;51.040;3.684;2023-04-01T05:16:11;1.25;;;0.68;;
36709;SDS011;22694;51.040;3.684;2023-04-01T05:18:39;1.08;;;0.68;;
36709;SDS011;22694;51.040;3.684;2023-04-01T05:21:06;0.60;;;0.60;;
36709;SDS011;22694;51.040;3.684;2023-04-01T05:23:33;1.60;;;0.70;;
36709;SDS011;22694;51.040;3.684;2023-04-01T05:26:06;1.40;;;0.68;;
36709;SDS011;22694;51.040;3.684;2023-04-01T05:28:38;2.05;;;0.60;;
36709;SDS011;22694;51.040;3.684;2023-04-01T05:31:04;0.75;;;0.55;;
36709;SDS011;22694;51.040;3.684;2023-04-01T05:33:31;1.00;;;0.70;;
36709;SDS011;22694;51.040;3.684;2023-04-01T05:36:05;0.73;;;0.60;;
36709;SDS011;22694;51.040;3.684;2023-04-01T05:38:38;1.23;;;0.70;;
36709;SDS011;22694;51.040;3.684;2023-04-01T05:41:04;1.20;;;0.73;;
36709;SDS011;22694;51.040;3.684;2023-04-01T05:43:30;1.58;;;0.70;;
36709;SDS011;22694;51.040;3.684;2023-04-01T05:45:56;1.17;;;0.63;;
36709;SDS011;22694;51.040;3.684;2023-04-01T05:48:22;2.50;;;0.82;;
36709;SDS011;22694;51.040;3.684;2023-04-01T05:50:48;1.98;;;0.70;;
36709;SDS011;22694;51.040;3.684;2023-04-01T05:53:14;0.80;;;0.57;;
36709;SDS011;22694;51.040;3.684;2023-04-01T05:55:39;0.70;;;0.70;;
36709;SDS011;22694;51.040;3.684;2023-04-01T05:58:05;0.90;;;0.60;;
36709;SDS011;22694;51.040;3.684;2023-04-01T06:00:31;0.85;;;0.57;;
36709;SDS011;22694;51.040;3.684;2023-04-01T06:02:58;1.05;;;0.60;;
36709;SDS011;22694;51.040;3.684;2023-04-01T06:05:26;0.90;;;0.60;;
36709;SDS011;22694;51.040;3.684;2023-04-01T06:08:00;0.90;;;0.70;;
36709;SDS011;22694;51.040;3.684;2023-04-01T06:21:41;3.83;;;0.50;;
36709;SDS011;22694;51.040;3.684;2023-04-01T06:24:40;0.43;;;0.35;;
36709;SDS011;22694;51.040;3.684;2023-04-01T06:35:54;2.13;;;0.40;;
36709;SDS011;22694;51.040;3.684;2023-04-01T06:38:34;0.73;;;0.40;;
36709;SDS011;22694;51.040;3.684;2023-04-01T06:41:32;2.20;;;0.50;;
36709;SDS011;22694;51.040;3.684;2023-04-01T06:52:50;0.73;;;0.38;;
36709;SDS011;22694;51.040;3.684;2023-04-01T06:55:46;1.85;;;0.40;;
36709;SDS011;22694;51.040;3.684;2023-04-01T06:58:37;1.65;;;0.30;;
36709;SDS011;22694;51.040;3.684;2023-04-01T07:01:07;1.75;;;0.28;;
36709;SDS011;22694;51.040;3.684;2023-04-01T07:06:36;1.77;;;0.50;;
36709;SDS011;22694;51.040;3.684;2023-04-01T07:09:08;0.65;;;0.40;;
36709;SDS011;22694;51.040;3.684;2023-04-01T07:11:39;1.50;;;0.47;;
36709;SDS011;22694;51.040;3.684;2023-04-01T07:16:56;2.33;;;0.30;;
36709;SDS011;22694;51.040;3.684;2023-04-01T07:19:39;0.75;;;0.20;;
36709;SDS011;22694;51.040;3.684;2023-04-01T07:22:14;1.38;;;0.38;;
36709;SDS011;22694;51.040;3.684;2023-04-01T07:24:54;0.22;;;0.20;;
36709;SDS011;22694;51.040;3.684;2023-04-01T07:27:19;2.35;;;0.38;;
36709;SDS011;22694;51.040;3.684;2023-04-01T07:29:45;1.60;;;0.30;;
36709;SDS011;22694;51.040;3.684;2023-04-01T07:37:30;2.10;;;0.40;;
36709;SDS011;22694;51.040;3.684;2023-04-01T07:48:26;0.20;;;0.20;;
36709;SDS011;22694;51.040;3.684;2023-04-01T07:51:57;2.17;;;0.25;;
36709;SDS011;22694;51.040;3.684;2023-04-01T08:05:09;0.68;;;0.25;;
36709;SDS011;22694;51.040;3.684;2023-04-01T08:16:12;0.57;;;0.25;;
36709;SDS011;22694;51.040;3.684;2023-04-01T08:21:31;4.93;;;0.60;;
36709;SDS011;22694;51.040;3.684;2023-04-01T08:24:46;2.58;;;0.52;;
36709;SDS011;22694;51.040;3.684;2023-04-01T08:27:03;3.95;;;0.50;;
36709;SDS011;22694;51.040;3.684;2023-04-01T08:32:17;1.13;;;0.38;;
36709;SDS011;22694;51.040;3.684;2023-04-01T08:34:52;2.05;;;0.65;;
36709;SDS011;22694;51.040;3.684;2023-04-01T08:37:32;2.38;;;0.50;;
36709;SDS011;22694;51.040;3.684;2023-04-01T08:45:11;1.98;;;0.47;;
36709;SDS011;22694;51.040;3.684;2023-04-01T08:53:23;1.27;;;0.30;;
36709;SDS011;22694;51.040;3.684;2023-04-01T08:56:17;1.65;;;0.30;;
36709;SDS011;22694;51.040;3.684;2023-04-01T09:09:28;0.38;;;0.30;;
36709;SDS011;22694;51.040;3.684;2023-04-01T09:12:06;1.73;;;0.50;;
36709;SDS011;22694;51.040;3.684;2023-04-01T09:26:10;1.85;;;0.50;;
36709;SDS011;22694;51.040;3.684;2023-04-01T09:34:52;1.13;;;0.40;;
36709;SDS011;22694;51.040;3.684;2023-04-01T09:37:33;1.08;;;0.30;;
36709;SDS011;22694;51.040;3.684;2023-04-01T09:50:27;1.83;;;0.43;;
36709;SDS011;22694;51.040;3.684;2023-04-01T09:53:17;1.35;;;0.30;;
36709;SDS011;22694;51.040;3.684;2023-04-01T09:56:11;0.35;;;0.10;;
36709;SDS011;22694;51.040;3.684;2023-04-01T10:01:54;1.08;;;0.30;;
36709;SDS011;22694;51.040;3.684;2023-04-01T10:04:28;0.85;;;0.45;;
36709;SDS011;22694;51.040;3.684;2023-04-01T10:10:20;0.32;;;0.30;;
36709;SDS011;22694;51.040;3.684;2023-04-01T10:23:53;0.25;;;0.25;;
36709;SDS011;22694;51.040;3.684;2023-04-01T10:48:40;3.57;;;1.03;;
36709;SDS011;22694;51.040;3.684;2023-04-01T10:56:59;2.20;;;0.70;;
36709;SDS011;22694;51.040;3.684;2023-04-01T11:02:54;1.25;;;0.40;;
36709;SDS011;22694;51.040;3.684;2023-04-01T11:05:38;1.45;;;0.75;;
36709;SDS011;22694;51.040;3.684;2023-04-01T11:08:18;0.82;;;0.52;;
36709;SDS011;22694;51.040;3.684;2023-04-01T11:19:33;1.02;;;0.68;;
36709;SDS011;22694;51.040;3.684;2023-04-01T11:38:22;2.08;;;0.68;;
36709;SDS011;22694;51.040;3.684;2023-04-01T11:46:56;2.30;;;0.80;;
36709;SDS011;22694;51.040;3.684;2023-04-01T11:50:00;2.15;;;0.85;;
36709;SDS011;22694;51.040;3.684;2023-04-01T11:55:58;12.10;;;3.67;;
36709;SDS011;22694;51.040;3.684;2023-04-01T12:02:18;3.80;;;1.77;;
36709;SDS011;22694;51.040;3.684;2023-04-01T12:04:34;6.55;;;1.65;;
36709;SDS011;22694;51.040;3.684;2023-04-01T12:09:56;6.20;;;1.45;;
36709;SDS011;22694;51.040;3.684;2023-04-01T12:17:50;5.55;;;1.10;;
36709;SDS011;22694;51.040;3.684;2023-04-01T12:20:43;3.47;;;1.23;;
36709;SDS011;22694;51.040;3.684;2023-04-01T12:48:26;3.17;;;1.20;;
36709;SDS011;22694;51.040;3.684;2023-04-01T13:08:10;5.70;;;1.02;;
36709;SDS011;22694;51.040;3.684;2023-04-01T13:11:02;2.30;;;0.75;;
36709;SDS011;22694;51.040;3.684;2023-04-01T13:13:50;2.10;;;0.70;;
36709;SDS011;22694;51.040;3.684;2023-04-01T13:18:54;3.35;;;0.85;;
36709;SDS011;22694;51.040;3.684;2023-04-01T13:24:41;1.05;;;0.63;;
36709;SDS011;22694;51.040;3.684;2023-04-01T13:27:21;2.85;;;0.75;;
36709;SDS011;22694;51.040;3.684;2023-04-01T13:30:53;1.35;;;0.52;;
36709;SDS011;22694;51.040;3.684;2023-04-01T13:36:18;0.85;;;0.50;;
36709;SDS011;22694;51.040;3.684;2023-04-01T13:52:41;1.92;;;0.52;;
36709;SDS011;22694;51.040;3.684;2023-04-01T14:04:53;1.15;;;0.68;;
36709;SDS011;22694;51.040;3.684;2023-04-01T14:10:40;0.60;;;0.30;;
36709;SDS011;22694;51.040;3.684;2023-04-01T14:15:58;0.55;;;0.30;;
36709;SDS011;22694;51.040;3.684;2023-04-01T14:18:47;2.05;;;0.45;;
36709;SDS011;22694;51.040;3.684;2023-04-01T14:24:45;1.58;;;0.60;;
36709;SDS011;22694;51.040;3.684;2023-04-01T14:35:12;0.82;;;0.40;;
36709;SDS011;22694;51.040;3.684;2023-04-01T14:38:02;1.00;;;0.40;;
36709;SDS011;22694;51.040;3.684;2023-04-01T14:49:00;0.93;;;0.22;;
36709;SDS011;22694;51.040;3.684;2023-04-01T14:56:38;0.63;;;0.40;;
36709;SDS011;22694;51.040;3.684;2023-04-01T14:59:09;1.30;;;0.40;;
36709;SDS011;22694;51.040;3.684;2023-04-01T15:01:53;0.98;;;0.40;;
36709;SDS011;22694;51.040;3.684;2023-04-01T15:04:44;1.58;;;0.50;;
36709;SDS011;22694;51.040;3.684;2023-04-01T15:09:54;1.13;;;0.40;;
36709;SDS011;22694;51.040;3.684;2023-04-01T15:18:09;0.57;;;0.28;;
36709;SDS011;22694;51.040;3.684;2023-04-01T15:26:11;0.80;;;0.50;;
36709;SDS011;22694;51.040;3.684;2023-04-01T15:31:32;0.50;;;0.30;;
36709;SDS011;22694;51.040;3.684;2023-04-01T15:40:04;0.70;;;0.35;;
36709;SDS011;22694;51.040;3.684;2023-04-01T16:02:21;1.05;;;0.45;;
36709;SDS011;22694;51.040;3.684;2023-04-01T16:05:21;2.22;;;0.45;;
36709;SDS011;22694;51.040;3.684;2023-04-01T16:10:38;1.40;;;0.60;;
36709;SDS011;22694;51.040;3.684;2023-04-01T16:16:23;0.40;;;0.28;;
36709;SDS011;22694;51.040;3.684;2023-04-01T16:32:45;1.33;;;0.70;;
36709;SDS011;22694;51.040;3.684;2023-04-01T16:43:40;2.30;;;0.40;;
36709;SDS011;22694;51.040;3.684;2023-04-01T16:46:18;5.78;;;0.60;;
36709;SDS011;22694;51.040;3.684;2023-04-01T16:48:52;1.17;;;0.63;;
36709;SDS011;22694;51.040;3.684;2023-04-01T16:51:23;0.85;;;0.47;;
36709;SDS011;22694;51.040;3.684;2023-04-01T16:53:52;1.20;;;0.38;;
36709;SDS011;22694;51.040;3.684;2023-04-01T16:56:52;1.70;;;0.77;;
36709;SDS011;22694;51.040;3.684;2023-04-01T17:02:10;1.15;;;0.50;;
36709;SDS011;22694;51.040;3.684;2023-04-01T17:10:21;1.27;;;0.50;;
36709;SDS011;22694;51.040;3.684;2023-04-01T17:15:47;2.35;;;0.50;;
36709;SDS011;22694;51.040;3.684;2023-04-01T17:24:45;0.85;;;0.57;;
36709;SDS011;22694;51.040;3.684;2023-04-01T17:35:52;0.32;;;0.28;;
36709;SDS011;22694;51.040;3.684;2023-04-01T17:46:56;0.77;;;0.40;;
36709;SDS011;22694;51.040;3.684;2023-04-01T18:03:35;2.15;;;0.60;;
36709;SDS011;22694;51.040;3.684;2023-04-01T18:06:24;1.53;;;0.70;;
36709;SDS011;22694;51.040;3.684;2023-04-01T18:09:00;1.30;;;0.68;;
36709;SDS011;22694;51.040;3.684;2023-04-01T18:17:17;1.15;;;0.52;;
36709;SDS011;22694;51.040;3.684;2023-04-01T18:22:26;2.33;;;0.70;;
36709;SDS011;22694;51.040;3.684;2023-04-01T18:25:25;2.00;;;0.80;;
36709;SDS011;22694;51.040;3.684;2023-04-01T18:28:26;1.33;;;0.80;;
36709;SDS011;22694;51.040;3.684;2023-04-01T18:36:09;1.38;;;0.70;;
36709;SDS011;22694;51.040;3.684;2023-04-01T18:38:47;2.10;;;0.98;;
36709;SDS011;22694;51.040;3.684;2023-04-01T18:41:36;2.65;;;1.00;;
36709;SDS011;22694;51.040;3.684;2023-04-01T18:44:41;3.55;;;1.15;;
36709;SDS011;22694;51.040;3.684;2023-04-01T18:47:41;2.40;;;1.00;;
36709;SDS011;22694;51.040;3.684;2023-04-01T18:55:51;2.30;;;0.73;;
36709;SDS011;22694;51.040;3.684;2023-04-01T19:03:41;2.88;;;1.30;;
36709;SDS011;22694;51.040;3.684;2023-04-01T19:06:32;4.57;;;1.25;;
36709;SDS011;22694;51.040;3.684;2023-04-01T19:09:23;3.22;;;1.30;;
36709;SDS011;22694;51.040;3.684;2023-04-01T19:17:25;4.20;;;1.45;;
36709;SDS011;22694;51.040;3.684;2023-04-01T19:26:03;3.22;;;1.58;;
36709;SDS011;22694;51.040;3.684;2023-04-01T19:28:47;3.58;;;1.05;;
36709;SDS011;22694;51.040;3.684;2023-04-01T19:34:06;3.97;;;1.67;;
36709;SDS011;22694;51.040;3.684;2023-04-01T19:36:58;5.10;;;1.58;;
36709;SDS011;22694;51.040;3.684;2023-04-01T19:47:45;4.00;;;1.35;;
36709;SDS011;22694;51.040;3.684;2023-04-01T19:53:00;6.47;;;1.60;;
36709;SDS011;22694;51.040;3.684;2023-04-01T20:01:40;3.47;;;1.42;;
36709;SDS011;22694;51.040;3.684;2023-04-01T20:04:08;4.45;;;1.85;;
36709;SDS011;22694;51.040;3.684;2023-04-01T20:18:13;4.03;;;1.65;;
36709;SDS011;22694;51.040;3.684;2023-04-01T20:20:56;4.65;;;1.77;;
36709;SDS011;22694;51.040;3.684;2023-04-01T20:26:07;3.75;;;1.65;;
36709;SDS011;22694;51.040;3.684;2023-04-01T20:31:40;6.40;;;1.75;;
36709;SDS011;22694;51.040;3.684;2023-04-01T20:39:44;3.88;;;1.60;;
36709;SDS011;22694;51.040;3.684;2023-04-01T20:45:22;4.72;;;2.50;;
36709;SDS011;22694;51.040;3.684;2023-04-01T20:50:51;5.10;;;2.17;;
36709;SDS011;22694;51.040;3.684;2023-04-01T21:04:43;5.30;;;2.58;;
36709;SDS011;22694;51.040;3.684;2023-04-01T21:13:03;6.40;;;2.78;;
36709;SDS011;22694;51.040;3.684;2023-04-01T21:15:52;6.28;;;2.30;;
36709;SDS011;22694;51.040;3.684;2023-04-01T21:19:07;5.32;;;2.25;;
36709;SDS011;22694;51.040;3.684;2023-04-01T21:24:49;5.78;;;2.35;;
36709;SDS011;22694;51.040;3.684;2023-04-01T21:30:47;6.55;;;2.95;;
36709;SDS011;22694;51.040;3.684;2023-04-01T21:32:51;8.68;;;3.33;;
36709;SDS011;22694;51.040;3.684;2023-04-01T21:35:37;6.57;;;2.33;;
36709;SDS011;22694;51.040;3.684;2023-04-01T21:49:09;6.10;;;3.15;;
36709;SDS011;22694;51.040;3.684;2023-04-01T21:58:18;7.38;;;2.90;;
36709;SDS011;22694;51.040;3.684;2023-04-01T22:00:23;8.90;;;3.63;;
36709;SDS011;22694;51.040;3.684;2023-04-01T22:05:42;7.93;;;3.67;;
36709;SDS011;22694;51.040;3.684;2023-04-01T22:08:29;8.25;;;4.15;;
36709;SDS011;22694;51.040;3.684;2023-04-01T22:13:50;8.68;;;3.63;;
36709;SDS011;22694;51.040;3.684;2023-04-01T22:19:00;9.98;;;4.00;;
36709;SDS011;22694;51.040;3.684;2023-04-01T22:22:04;8.15;;;3.63;;
36709;SDS011;22694;51.040;3.684;2023-04-01T22:24:42;8.15;;;3.97;;
36709;SDS011;22694;51.040;3.684;2023-04-01T22:27:44;6.13;;;3.40;;
36709;SDS011;22694;51.040;3.684;2023-04-01T22:30:34;7.95;;;4.00;;
36709;SDS011;22694;51.040;3.684;2023-04-01T22:33:30;9.93;;;4.82;;
36709;SDS011;22694;51.040;3.684;2023-04-01T22:49:45;7.50;;;3.75;;
36709;SDS011;22694;51.040;3.684;2023-04-01T22:52:31;12.50;;;4.85;;
36709;SDS011;22694;51.040;3.684;2023-04-01T22:55:17;7.82;;;4.10;;
36709;SDS011;22694;51.040;3.684;2023-04-01T22:58:03;7.65;;;4.00;;
36709;SDS011;22694;51.040;3.684;2023-04-01T23:00:51;11.02;;;4.45;;
36709;SDS011;22694;51.040;3.684;2023-04-01T23:03:25;10.02;;;4.70;;
36709;SDS011;22694;51.040;3.684;2023-04-01T23:05:58;10.88;;;5.25;;
36709;SDS011;22694;51.040;3.684;2023-04-01T23:08:36;9.40;;;4.90;;
36709;SDS011;22694;51.040;3.684;2023-04-01T23:11:23;10.65;;;4.72;;
36709;SDS011;22694;51.040;3.684;2023-04-01T23:14:03;8.32;;;5.00;;
36709;SDS011;22694;51.040;3.684;2023-04-01T23:16:37;11.85;;;5.60;;
36709;SDS011;22694;51.040;3.684;2023-04-01T23:19:15;11.25;;;4.78;;
36709;SDS011;22694;51.040;3.684;2023-04-01T23:21:49;9.20;;;4.55;;
36709;SDS011;22694;51.040;3.684;2023-04-01T23:24:33;11.00;;;5.18;;
36709;SDS011;22694;51.040;3.684;2023-04-01T23:27:11;8.32;;;4.68;;
36709;SDS011;22694;51.040;3.684;2023-04-01T23:29:56;8.80;;;4.90;;
36709;SDS011;22694;51.040;3.684;2023-04-01T23:32:22;8.48;;;4.68;;
36709;SDS011;22694;51.040;3.684;2023-04-01T23:34:52;8.73;;;4.95;;
36709;SDS011;22694;51.040;3.684;2023-04-01T23:37:25;8.70;;;5.10;;
36709;SDS011;22694;51.040;3.684;2023-04-01T23:39:53;8.48;;;5.22;;
36709;SDS011;22694;51.040;3.684;2023-04-01T23:42:37;10.80;;;4.68;;
36709;SDS011;22694;51.040;3.684;2023-04-01T23:45:11;9.57;;;5.43;;
36709;SDS011;22694;51.040;3.684;2023-04-01T23:47:42;11.02;;;5.38;;
36709;SDS011;22694;51.040;3.684;2023-04-01T23:52:47;10.52;;;6.10;;
36709;SDS011;22694;51.040;3.684;2023-04-01T23:55:27;9.13;;;6.72;;
